Time;durP1;ratioP1;P1;durP2;ratioP2;P2;SDS_P1;SDS_P2;PMS_P1;PMS_P2;Temp;Humidity;BMP_temperature;BMP_pressure;BME280_temperature;BME280_humidity;BME280_pressure;Samples;Min_cycle;Max_cycle;Signal;HPM_P1;HPM_P2
2023/11/01 00:01:32;;;;;;;;;53.50;45.00;;;;;;;;6490747;46;8944;-60
2023/11/01 00:07:35;;;;;;;;;56.50;45.50;;;;;;;;6490692;39;8912;-61
2023/11/01 00:13:38;;;;;;;;;52.50;44.00;;;;;;;;6491683;39;8930;-60
2023/11/01 00:19:40;;;;;;;;;58.00;46.75;;;;;;;;6489384;39;9540;-61
2023/11/01 00:25:43;;;;;;;;;46.25;40.75;;;;;;;;6490794;39;9535;-60
2023/11/01 00:31:45;;;;;;;;;49.75;42.50;;;;;;;;6490394;39;8924;-61
2023/11/01 00:37:48;;;;;;;;;57.25;46.50;;;;;;;;6490238;39;8946;-59
2023/11/01 00:43:50;;;;;;;;;52.50;43.25;;;;;;;;6489708;46;8958;-61
2023/11/01 00:49:52;;;;;;;;;46.75;40.25;;;;;;;;6490215;39;8982;-61
2023/11/01 00:55:55;;;;;;;;;53.50;43.75;;;;;;;;6489639;39;8885;-60
2023/11/01 01:01:58;;;;;;;;;20.25;14.75;;;;;;;;6489925;39;8879;-62
2023/11/01 01:08:01;;;;;;;;;56.75;47.00;;;;;;;;6489871;39;8920;-61
2023/11/01 01:14:04;;;;;;;;;51.25;43.50;;;;;;;;6489789;46;8872;-61
2023/11/01 01:20:06;;;;;;;;;53.50;44.25;;;;;;;;6490150;39;8976;-60
2023/11/01 01:26:09;;;;;;;;;48.50;42.25;;;;;;;;6490138;46;8913;-61
2023/11/01 01:32:11;;;;;;;;;52.00;43.67;;;;;;;;6490330;39;8908;-62
2023/11/01 01:38:14;;;;;;;;;52.00;42.50;;;;;;;;6489670;46;8887;-61
2023/11/01 01:44:17;;;;;;;;;51.50;41.25;;;;;;;;6489753;39;9552;-60
2023/11/01 01:50:20;;;;;;;;;46.50;40.75;;;;;;;;6490160;39;9503;-61
2023/11/01 01:56:24;;;;;;;;;42.67;38.33;;;;;;;;6489230;31;8919;-61
2023/11/01 05:06:22;;;;;;;;;22.00;22.00;;;;;;;;6384300;39;5001534;-61
2023/11/01 05:12:27;;;;;;;;;23.33;23.33;;;;;;;;6492820;39;8919;-60
2023/11/01 05:18:31;;;;;;;;;22.33;21.00;;;;;;;;6491534;39;8917;-62
2023/11/01 05:24:38;;;;;;;;;25.67;23.67;;;;;;;;6492657;39;8905;-60
2023/11/01 05:30:41;;;;;;;;;21.25;20.75;;;;;;;;6491394;39;8928;-60
2023/11/01 05:36:45;;;;;;;;;18.67;17.00;;;;;;;;6487071;46;8963;-60
2023/11/01 05:42:51;;;;;;;;;25.00;22.00;;;;;;;;6489721;39;8960;-60
2023/11/01 05:48:57;;;;;;;;;15.33;14.67;;;;;;;;6489313;39;8933;-61
2023/11/01 05:55:01;;;;;;;;;26.67;24.00;;;;;;;;6491384;39;8940;-61
2023/11/01 06:01:23;;;;;;;;;20.00;19.33;;;;;;;;6491187;46;8936;-62
2023/11/01 06:07:31;;;;;;;;;14.67;14.67;;;;;;;;6492674;39;8895;-63
2023/11/01 06:13:33;;;;;;;;;18.67;16.67;;;;;;;;6492069;46;8847;-62
2023/11/01 06:19:39;;;;;;;;;14.33;14.33;;;;;;;;6490672;39;8860;-60
2023/11/01 06:25:44;;;;;;;;;15.33;15.00;;;;;;;;6492180;39;8911;-62
2023/11/01 06:31:46;;;;;;;;;11.33;11.33;;;;;;;;6490256;39;9629;-63
2023/11/01 06:37:53;;;;;;;;;13.00;13.00;;;;;;;;6489624;47;8906;-64
2023/11/01 06:43:59;;;;;;;;;14.33;14.00;;;;;;;;6489830;31;8911;-62
2023/11/01 06:50:32;;;;;;;;;13.00;13.00;;;;;;;;6482974;46;8949;-65
2023/11/01 06:56:46;;;;;;;;;15.33;11.67;;;;;;;;6492286;39;8883;-61
2023/11/01 07:09:05;;;;;;;;;17.67;15.00;;;;;;;;6488512;46;8981;-61
2023/11/01 07:15:10;;;;;;;;;10.33;10.00;;;;;;;;6487022;46;8913;-62
2023/11/01 07:21:25;;;;;;;;;13.67;13.67;;;;;;;;6488498;46;9062;-64
2023/11/01 07:27:35;;;;;;;;;14.00;11.00;;;;;;;;6488504;46;8931;-62
2023/11/01 07:33:42;;;;;;;;;5.33;5.33;;;;;;;;6488190;31;9558;-63
2023/11/01 07:39:46;;;;;;;;;10.67;10.67;;;;;;;;6489155;31;8974;-62
2023/11/01 07:45:54;;;;;;;;;14.33;12.33;;;;;;;;6489707;31;9714;-62
2023/11/01 07:51:58;;;;;;;;;13.33;11.00;;;;;;;;6489620;39;8918;-63
2023/11/01 07:58:14;;;;;;;;;10.00;10.00;;;;;;;;6489601;31;8914;-62
2023/11/01 08:04:19;;;;;;;;;19.33;13.67;;;;;;;;6489554;39;8917;-63
2023/11/01 08:10:23;;;;;;;;;13.00;13.00;;;;;;;;6485567;46;8957;-63
2023/11/01 08:16:33;;;;;;;;;13.67;12.00;;;;;;;;6486632;46;8900;-65
2023/11/01 08:22:39;;;;;;;;;13.67;9.67;;;;;;;;6484165;39;9571;-64
2023/11/01 08:28:46;;;;;;;;;11.00;11.00;;;;;;;;6482128;31;9050;-63
2023/11/01 08:34:57;;;;;;;;;10.33;8.00;;;;;;;;6484681;39;8917;-63
2023/11/01 08:41:09;;;;;;;;;17.00;12.67;;;;;;;;6483555;31;8941;-63
2023/11/01 08:47:32;;;;;;;;;10.67;9.67;;;;;;;;6487404;39;8934;-62
2023/11/01 08:53:44;;;;;;;;;12.33;12.00;;;;;;;;6485627;39;8882;-65
2023/11/01 08:59:54;;;;;;;;;12.67;11.33;;;;;;;;6484176;46;9017;-63
2023/11/01 09:05:59;;;;;;;;;11.33;11.33;;;;;;;;6487681;31;9026;-63
2023/11/01 09:12:09;;;;;;;;;9.67;8.00;;;;;;;;6487477;46;8972;-64
2023/11/01 09:18:17;;;;;;;;;8.00;8.00;;;;;;;;6488168;31;8922;-64
2023/11/01 09:24:21;;;;;;;;;7.67;7.67;;;;;;;;6484895;39;8968;-63
2023/11/01 09:30:30;;;;;;;;;9.00;6.67;;;;;;;;6488490;31;8968;-61
2023/11/01 09:36:44;;;;;;;;;14.33;14.33;;;;;;;;6488148;39;8944;-63
2023/11/01 09:42:48;;;;;;;;;14.00;13.00;;;;;;;;6488073;39;9133;-63
2023/11/01 09:48:56;;;;;;;;;4.33;4.33;;;;;;;;6487249;46;8977;-62
2023/11/01 09:55:02;;;;;;;;;17.67;15.00;;;;;;;;6487013;39;8918;-62
2023/11/01 10:01:05;;;;;;;;;17.00;16.33;;;;;;;;6486674;46;8943;-65
2023/11/01 10:07:13;;;;;;;;;21.00;15.67;;;;;;;;6484806;46;8994;-64
2023/11/01 10:13:16;;;;;;;;;11.67;10.00;;;;;;;;6486243;31;9623;-62
2023/11/01 10:19:20;;;;;;;;;8.33;6.67;;;;;;;;6485701;39;9073;-65
2023/11/01 10:25:24;;;;;;;;;8.00;8.00;;;;;;;;6484396;39;9562;-63
2023/11/01 10:31:27;;;;;;;;;6.00;6.00;;;;;;;;6486810;31;8972;-62
2023/11/01 10:37:32;;;;;;;;;9.00;7.00;;;;;;;;6485319;39;9032;-63
2023/11/01 10:43:34;;;;;;;;;5.67;5.67;;;;;;;;6485917;47;8980;-63
2023/11/01 10:49:41;;;;;;;;;6.00;5.75;;;;;;;;6485555;47;8934;-63
2023/11/01 10:55:45;;;;;;;;;4.00;4.00;;;;;;;;6485841;39;8902;-63
2023/11/01 11:01:56;;;;;;;;;4.00;4.00;;;;;;;;6486682;39;9020;-63
2023/11/01 11:08:09;;;;;;;;;18.67;18.33;;;;;;;;6480398;39;9621;-62
2023/11/01 11:14:40;;;;;;;;;6.50;6.50;;;;;;;;6482991;39;8937;-64
2023/11/01 11:20:44;;;;;;;;;7.25;7.25;;;;;;;;6483551;31;9096;-64
2023/11/01 11:26:49;;;;;;;;;7.33;7.33;;;;;;;;6485810;31;8965;-64
2023/11/01 11:33:06;;;;;;;;;6.00;5.50;;;;;;;;6486555;39;9067;-63
2023/11/01 11:39:14;;;;;;;;;5.75;5.75;;;;;;;;6490261;31;9169;-64
2023/11/01 11:45:44;;;;;;;;;3.75;3.75;;;;;;;;6486242;39;8965;-64
2023/11/01 11:51:52;;;;;;;;;5.50;5.50;;;;;;;;6485311;39;10055;-64
2023/11/01 11:57:54;;;;;;;;;5.75;5.75;;;;;;;;6487536;39;8939;-65
2023/11/01 12:04:07;;;;;;;;;4.75;4.75;;;;;;;;6486758;31;8945;-64
2023/11/01 12:10:11;;;;;;;;;4.00;4.00;;;;;;;;6485903;39;8925;-62
2023/11/01 12:16:27;;;;;;;;;5.50;5.25;;;;;;;;6487452;46;9024;-63
2023/11/01 12:22:44;;;;;;;;;5.00;3.25;;;;;;;;6487819;39;8943;-64
2023/11/01 12:28:50;;;;;;;;;4.00;4.00;;;;;;;;6486692;39;9601;-64
2023/11/01 12:34:53;;;;;;;;;3.33;3.00;;;;;;;;6486038;39;8956;-66
2023/11/01 12:40:57;;;;;;;;;3.75;3.75;;;;;;;;6489073;31;8941;-63
2023/11/01 12:46:59;;;;;;;;;4.00;4.00;;;;;;;;6485627;46;8984;-63
2023/11/01 12:53:03;;;;;;;;;11.00;9.33;;;;;;;;6487278;39;9105;-65
2023/11/01 12:59:05;;;;;;;;;4.00;4.00;;;;;;;;6486927;46;8996;-64
2023/11/01 13:05:13;;;;;;;;;8.00;7.33;;;;;;;;6486146;39;8962;-66
2023/11/01 13:11:15;;;;;;;;;5.50;4.75;;;;;;;;6485520;39;8926;-66
2023/11/01 13:17:19;;;;;;;;;2.00;2.00;;;;;;;;6488163;46;8979;-64
2023/11/01 13:23:22;;;;;;;;;3.75;3.75;;;;;;;;6487698;46;8930;-65
2023/11/01 13:29:24;;;;;;;;;4.75;4.00;;;;;;;;6488363;39;9567;-63
2023/11/01 13:35:27;;;;;;;;;4.67;4.67;;;;;;;;6486091;31;9437;-66
2023/11/01 13:41:34;;;;;;;;;2.25;2.25;;;;;;;;6485506;46;9028;-64
2023/11/01 13:47:37;;;;;;;;;2.50;2.50;;;;;;;;6485143;39;8966;-63
2023/11/01 13:53:41;;;;;;;;;4.33;2.00;;;;;;;;6485747;39;8906;-64
2023/11/01 13:59:43;;;;;;;;;4.00;4.00;;;;;;;;6485762;39;8941;-63
2023/11/01 14:05:51;;;;;;;;;3.25;3.00;;;;;;;;6485777;39;8975;-65
2023/11/01 14:12:05;;;;;;;;;2.00;2.00;;;;;;;;6485382;39;8934;-64
2023/11/01 14:18:07;;;;;;;;;1.50;1.50;;;;;;;;6484080;39;8915;-65
2023/11/01 14:24:16;;;;;;;;;3.00;3.00;;;;;;;;6486665;31;9030;-63
2023/11/01 14:30:21;;;;;;;;;6.00;5.00;;;;;;;;6486680;46;8927;-63
2023/11/01 14:36:25;;;;;;;;;4.00;3.00;;;;;;;;6488815;31;8926;-62
2023/11/01 14:42:30;;;;;;;;;1.33;1.33;;;;;;;;6485392;47;9115;-63
2023/11/01 14:48:34;;;;;;;;;3.33;3.33;;;;;;;;6485037;47;8935;-62
2023/11/01 14:54:39;;;;;;;;;4.67;2.00;;;;;;;;6485419;31;9013;-63
2023/11/01 15:00:45;;;;;;;;;4.00;3.00;;;;;;;;6485701;39;8942;-61
2023/11/01 15:06:49;;;;;;;;;5.00;5.00;;;;;;;;6489241;39;8974;-63
2023/11/01 15:12:53;;;;;;;;;8.00;6.00;;;;;;;;6489380;46;8922;-65
2023/11/01 15:18:58;;;;;;;;;5.67;4.67;;;;;;;;6489293;46;8914;-63
2023/11/01 15:25:01;;;;;;;;;2.00;2.00;;;;;;;;6489090;31;8947;-64
2023/11/01 15:31:04;;;;;;;;;4.00;4.00;;;;;;;;6488945;46;8930;-63
2023/11/01 15:37:07;;;;;;;;;5.00;4.00;;;;;;;;6488424;46;8989;-63
2023/11/01 15:43:12;;;;;;;;;10.33;9.00;;;;;;;;6489482;39;8962;-62
2023/11/01 15:49:20;;;;;;;;;4.67;4.67;;;;;;;;6533714;36;9006;-63
2023/11/01 15:55:22;;;;;;;;;5.67;5.67;;;;;;;;6488760;39;9033;-63
2023/11/01 16:01:27;;;;;;;;;6.00;5.00;;;;;;;;6488906;39;8987;-67
2023/11/01 16:07:34;;;;;;;;;9.00;8.00;;;;;;;;6490830;31;9064;-68
2023/11/01 16:13:38;;;;;;;;;6.00;4.67;;;;;;;;6490294;31;8928;-69
2023/11/01 16:19:42;;;;;;;;;9.00;9.00;;;;;;;;6489746;46;8894;-68
2023/11/01 16:25:45;;;;;;;;;5.67;5.67;;;;;;;;6489512;39;9553;-67
2023/11/01 16:31:48;;;;;;;;;4.00;4.00;;;;;;;;6489440;39;8914;-67
2023/11/01 16:37:55;;;;;;;;;3.67;3.67;;;;;;;;6489648;46;8953;-68
2023/11/01 16:44:00;;;;;;;;;3.00;2.67;;;;;;;;6489719;46;8850;-68
2023/11/01 16:50:05;;;;;;;;;8.00;6.33;;;;;;;;6489843;46;9020;-67
2023/11/01 16:56:11;;;;;;;;;4.00;4.00;;;;;;;;6488955;46;8859;-67
2023/11/01 17:02:18;;;;;;;;;6.33;6.33;;;;;;;;6488440;46;9056;-70
2023/11/01 17:08:43;;;;;;;;;4.00;4.00;;;;;;;;6488302;39;8910;-67
2023/11/01 17:14:52;;;;;;;;;5.00;5.00;;;;;;;;6486803;39;8882;-67
2023/11/01 17:20:54;;;;;;;;;5.00;5.00;;;;;;;;6486425;39;8956;-67
2023/11/01 17:26:57;;;;;;;;;8.67;8.67;;;;;;;;6487855;39;8906;-66
2023/11/01 17:33:01;;;;;;;;;9.67;9.67;;;;;;;;6488548;39;8945;-67
2023/11/01 17:39:09;;;;;;;;;24.33;23.33;;;;;;;;6487875;46;8858;-68
2023/11/01 17:45:15;;;;;;;;;11.67;9.00;;;;;;;;6488321;39;8905;-66
2023/11/01 17:51:22;;;;;;;;;13.00;12.33;;;;;;;;6488827;39;8866;-68
2023/11/01 17:57:28;;;;;;;;;9.00;9.00;;;;;;;;6488856;39;8936;-69
2023/11/01 18:03:32;;;;;;;;;15.00;12.67;;;;;;;;6488709;46;8905;-67
2023/11/01 18:09:36;;;;;;;;;13.67;13.67;;;;;;;;6489734;39;8938;-67
2023/11/01 18:15:39;;;;;;;;;14.67;13.33;;;;;;;;6490201;31;8858;-66
2023/11/01 18:21:44;;;;;;;;;13.67;13.00;;;;;;;;6488502;31;8874;-66
2023/11/01 18:27:51;;;;;;;;;15.67;15.67;;;;;;;;6489219;46;8941;-67
2023/11/01 18:34:01;;;;;;;;;15.00;15.00;;;;;;;;6489067;46;8941;-67
2023/11/01 18:40:06;;;;;;;;;24.00;20.00;;;;;;;;6488606;39;9955;-67
2023/11/01 18:46:13;;;;;;;;;20.33;14.67;;;;;;;;6488469;39;8866;-67
2023/11/01 18:52:18;;;;;;;;;20.00;16.67;;;;;;;;6488468;31;8952;-68
2023/11/01 18:58:20;;;;;;;;;11.33;11.33;;;;;;;;6488161;47;9104;-65
2023/11/01 19:04:28;;;;;;;;;16.00;15.33;;;;;;;;6486775;47;8922;-68
2023/11/01 19:10:34;;;;;;;;;14.33;13.67;;;;;;;;6488070;47;8949;-66
2023/11/01 19:16:36;;;;;;;;;13.00;13.00;;;;;;;;6487059;39;8858;-66
2023/11/01 19:22:39;;;;;;;;;12.67;10.00;;;;;;;;6489557;39;8882;-66
2023/11/01 19:28:42;;;;;;;;;16.67;14.67;;;;;;;;6488017;39;9498;-68
2023/11/01 19:34:50;;;;;;;;;12.00;10.00;;;;;;;;6488811;39;8917;-68
2023/11/01 19:40:54;;;;;;;;;15.67;15.67;;;;;;;;6489002;39;8922;-67
2023/11/01 19:47:03;;;;;;;;;18.00;17.33;;;;;;;;6489030;31;8830;-67
2023/11/01 19:53:07;;;;;;;;;19.67;19.33;;;;;;;;6489005;39;8932;-67
2023/11/01 19:59:12;;;;;;;;;18.00;17.67;;;;;;;;6491227;31;9077;-65
2023/11/01 20:05:19;;;;;;;;;17.00;14.00;;;;;;;;6490200;39;9058;-67
2023/11/01 20:11:27;;;;;;;;;16.00;13.67;;;;;;;;6491554;31;8866;-67
2023/11/01 20:17:34;;;;;;;;;20.50;20.50;;;;;;;;6490582;39;8870;-65
2023/11/01 20:23:39;;;;;;;;;11.67;11.33;;;;;;;;6491308;39;8961;-66
2023/11/01 20:29:44;;;;;;;;;12.67;12.33;;;;;;;;6489813;39;8898;-67
2023/11/01 20:35:47;;;;;;;;;9.50;9.00;;;;;;;;6490142;46;8927;-66
2023/11/01 20:41:55;;;;;;;;;14.33;11.33;;;;;;;;6490871;39;8830;-66
2023/11/01 20:47:58;;;;;;;;;9.00;9.00;;;;;;;;6490019;39;8997;-67
2023/11/01 20:54:04;;;;;;;;;9.00;8.00;;;;;;;;6490242;39;8980;-68
2023/11/01 21:00:10;;;;;;;;;6.33;6.33;;;;;;;;6489950;46;8911;-66
2023/11/01 21:06:13;;;;;;;;;9.33;8.00;;;;;;;;6490284;39;8968;-65
2023/11/01 21:12:17;;;;;;;;;8.67;8.67;;;;;;;;6488548;46;8921;-66
2023/11/01 21:18:19;;;;;;;;;6.33;6.33;;;;;;;;6490344;31;8953;-66
2023/11/01 21:24:23;;;;;;;;;10.33;9.00;;;;;;;;6490519;39;8959;-67
2023/11/01 21:30:27;;;;;;;;;7.67;7.00;;;;;;;;6489682;46;8910;-66
2023/11/01 21:36:34;;;;;;;;;7.33;7.00;;;;;;;;6490350;31;8924;-68
2023/11/01 21:42:42;;;;;;;;;8.67;6.33;;;;;;;;6489687;46;8874;-66
2023/11/01 21:48:47;;;;;;;;;7.67;4.00;;;;;;;;6489160;39;9544;-66
2023/11/01 21:54:52;;;;;;;;;6.67;6.67;;;;;;;;6490963;39;8850;-68
2023/11/01 22:01:03;;;;;;;;;8.00;6.67;;;;;;;;6488808;46;8894;-67
2023/11/01 22:07:15;;;;;;;;;5.33;5.33;;;;;;;;6491375;31;8961;-66
2023/11/01 22:13:18;;;;;;;;;6.67;4.00;;;;;;;;6489356;39;8938;-65
2023/11/01 22:19:31;;;;;;;;;7.00;7.00;;;;;;;;6489002;39;8830;-67
2023/11/01 22:25:35;;;;;;;;;7.00;7.00;;;;;;;;6490295;31;9033;-66
2023/11/01 22:31:51;;;;;;;;;7.00;7.00;;;;;;;;6488341;39;9556;-66
2023/11/01 22:37:55;;;;;;;;;9.00;7.33;;;;;;;;6414128;31;5001725;-66
2023/11/01 22:43:58;;;;;;;;;10.00;8.00;;;;;;;;6489077;39;12356;-66
2023/11/01 22:50:02;;;;;;;;;8.00;8.00;;;;;;;;6489044;47;9028;-66
2023/11/01 22:56:09;;;;;;;;;8.75;8.50;;;;;;;;6487197;39;9008;-67
2023/11/01 23:02:13;;;;;;;;;8.00;7.33;;;;;;;;6489475;39;8879;-66
2023/11/01 23:08:17;;;;;;;;;10.75;10.75;;;;;;;;6489143;46;8943;-65
2023/11/01 23:14:20;;;;;;;;;11.50;9.75;;;;;;;;6487981;39;8966;-67
2023/11/01 23:20:25;;;;;;;;;9.25;7.25;;;;;;;;6490124;31;8903;-65
2023/11/01 23:26:55;;;;;;;;;9.00;8.33;;;;;;;;6488866;39;9027;-65
2023/11/01 23:33:00;;;;;;;;;9.00;9.00;;;;;;;;6490682;39;8958;-65
2023/11/01 23:39:12;;;;;;;;;9.00;9.00;;;;;;;;6490222;39;8875;-65
2023/11/01 23:46:04;;;;;;;;;9.50;8.25;;;;;;;;6490089;31;8868;-66
2023/11/01 23:52:17;;;;;;;;;7.00;7.00;;;;;;;;6490345;46;8939;-65
2023/11/01 23:58:42;;;;;;;;;9.00;9.00;;;;;;;;6490929;39;8923;-65
